createdAt,value
2019-02-07T00:02:18.348Z,43.95
2019-02-07T00:04:49.774Z,47.13
2019-02-07T00:07:21.529Z,52.40
2019-02-07T00:09:52.915Z,43.45
2019-02-07T00:12:24.499Z,40.73
2019-02-07T00:14:55.932Z,41.50
2019-02-07T00:17:27.561Z,44.58
2019-02-07T00:19:59.008Z,40.58
2019-02-07T00:22:30.442Z,43.58
2019-02-07T00:25:01.946Z,45.33
2019-02-07T00:27:33.572Z,45.83
2019-02-07T00:30:06.345Z,46.63
2019-02-07T00:32:37.719Z,38.53
2019-02-07T00:35:10.156Z,40.40
2019-02-07T00:37:41.575Z,39.23
2019-02-07T00:40:14.689Z,44.48
2019-02-07T00:42:46.428Z,38.75
2019-02-07T00:45:18.198Z,42.20
2019-02-07T00:47:50.123Z,38.75
2019-02-07T00:50:22.404Z,43.17
2019-02-07T00:52:53.915Z,38.40
2019-02-07T00:55:25.788Z,38.70
2019-02-07T00:57:57.091Z,43.70
2019-02-07T01:00:28.577Z,37.98
2019-02-07T01:03:00.082Z,45.40
2019-02-07T01:05:31.539Z,37.65
2019-02-07T01:08:03.343Z,39.40
2019-02-07T01:10:34.754Z,42.17
2019-02-07T01:13:06.448Z,47.90
2019-02-07T01:15:37.917Z,36.08
2019-02-07T01:18:09.967Z,38.23
2019-02-07T01:20:41.850Z,42.70
2019-02-07T01:23:13.293Z,42.65
2019-02-07T01:25:46.474Z,36.68
2019-02-07T01:28:17.961Z,41.25
2019-02-07T01:30:49.439Z,38.13
2019-02-07T01:33:21.237Z,48.00
2019-02-07T01:35:53.067Z,43.15
2019-02-07T01:38:24.497Z,39.10
2019-02-07T01:40:55.956Z,38.48
2019-02-07T01:43:27.417Z,38.28
2019-02-07T01:45:59.191Z,39.98
2019-02-07T01:48:30.629Z,35.03
2019-02-07T01:51:02.177Z,38.88
2019-02-07T01:53:33.628Z,40.98
2019-02-07T01:56:05.175Z,45.80
2019-02-07T01:58:36.959Z,37.98
2019-02-07T02:01:08.492Z,37.83
2019-02-07T02:03:40.040Z,40.75
2019-02-07T02:06:11.548Z,37.93
2019-02-07T02:08:43.174Z,37.15
2019-02-07T02:11:16.033Z,39.78
2019-02-07T02:13:47.501Z,38.25
2019-02-07T02:16:18.983Z,37.48
2019-02-07T02:18:50.461Z,32.90
2019-02-07T02:21:21.923Z,33.85
2019-02-07T02:23:53.647Z,36.58
2019-02-07T02:26:25.097Z,38.20
2019-02-07T02:28:56.515Z,42.75
2019-02-07T02:31:27.952Z,38.60
2019-02-07T02:33:59.374Z,44.33
2019-02-07T02:36:31.114Z,35.75
2019-02-07T02:39:02.806Z,40.60
2019-02-07T02:41:35.899Z,38.78
2019-02-07T02:44:07.383Z,36.98
2019-02-07T02:46:38.881Z,38.38
2019-02-07T02:49:10.698Z,37.48
2019-02-07T02:51:42.117Z,36.73
2019-02-07T02:54:35.023Z,67.32
2019-02-07T02:57:07.238Z,72.75
2019-02-07T02:59:39.560Z,45.95
2019-02-07T03:02:47.998Z,44.15
2019-02-07T03:05:47.266Z,40.08
2019-02-07T03:08:40.255Z,42.05
2019-02-07T03:11:41.230Z,33.95
2019-02-07T03:14:34.570Z,45.00
2019-02-07T03:17:31.126Z,46.10
2019-02-07T03:20:36.341Z,44.95
2019-02-07T03:23:31.435Z,44.95
2019-02-07T03:26:15.693Z,42.67
2019-02-07T03:29:15.221Z,45.28
2019-02-07T03:31:57.995Z,44.58
2019-02-07T03:34:43.203Z,33.45
2019-02-07T03:37:42.338Z,39.03
2019-02-07T03:40:31.782Z,37.50
2019-02-07T03:43:34.299Z,44.65
2019-02-07T03:46:30.687Z,38.23
2019-02-07T03:49:10.183Z,35.63
2019-02-07T03:51:59.954Z,41.92
2019-02-07T03:54:45.851Z,36.45
2019-02-07T03:57:39.004Z,44.05
2019-02-07T04:00:21.418Z,41.08
2019-02-07T04:03:04.837Z,43.13
2019-02-07T04:06:13.142Z,37.88
2019-02-07T04:09:06.002Z,46.55
2019-02-07T04:11:54.958Z,38.80
2019-02-07T04:14:54.097Z,43.83
2019-02-07T04:17:40.918Z,39.67
2019-02-07T04:20:34.633Z,37.90
2019-02-07T04:23:19.279Z,40.50
2019-02-07T04:26:09.617Z,43.75
2019-02-07T04:28:50.484Z,43.48
2019-02-07T04:31:40.956Z,40.78
2019-02-07T04:34:49.436Z,43.60
2019-02-07T04:37:54.523Z,35.20
2019-02-07T04:40:38.632Z,38.02
2019-02-07T04:43:27.398Z,39.80
2019-02-07T04:46:29.742Z,38.65
2019-02-07T04:49:18.822Z,35.35
2019-02-07T04:52:10.818Z,42.40
2019-02-07T04:55:00.985Z,35.83
2019-02-07T04:57:45.541Z,37.08
2019-02-07T05:00:40.243Z,38.00
2019-02-07T05:03:40.088Z,34.03
2019-02-07T05:06:27.678Z,35.40
2019-02-07T05:09:10.097Z,33.90
2019-02-07T05:12:00.655Z,38.58
2019-02-07T05:14:43.794Z,34.75
2019-02-07T05:17:27.353Z,36.60
2019-02-07T05:20:25.602Z,30.25
2019-02-07T05:23:28.959Z,40.73
2019-02-07T05:26:38.201Z,41.42
2019-02-07T05:29:27.334Z,35.10
2019-02-07T05:32:23.692Z,41.25
2019-02-07T05:35:14.082Z,32.28
2019-02-07T05:38:02.853Z,34.05
2019-02-07T05:40:52.076Z,32.75
2019-02-07T05:43:49.956Z,28.15
2019-02-07T05:46:53.918Z,28.92
2019-02-07T05:49:48.093Z,27.00
2019-02-07T05:52:48.022Z,35.80
2019-02-07T05:55:38.389Z,31.12
2019-02-07T05:58:37.543Z,30.60
2019-02-07T06:01:26.782Z,37.28
2019-02-07T06:04:23.840Z,30.10
2019-02-07T06:07:17.402Z,31.37
2019-02-07T06:10:11.010Z,29.25
2019-02-07T06:13:17.051Z,34.67
2019-02-07T06:16:10.833Z,44.35
2019-02-07T06:19:04.889Z,31.20
2019-02-07T06:21:54.217Z,35.70
2019-02-07T06:24:53.803Z,35.95
2019-02-07T06:27:46.979Z,35.63
2019-02-07T06:30:46.755Z,33.60
2019-02-07T06:33:35.821Z,29.45
2019-02-07T06:36:22.310Z,36.15
2019-02-07T06:39:28.808Z,36.73
2019-02-07T06:42:17.566Z,30.27
2019-02-07T06:45:14.692Z,33.73
2019-02-07T06:48:11.166Z,29.98
2019-02-07T06:51:01.537Z,33.35
2019-02-07T06:53:50.305Z,37.85
2019-02-07T06:56:44.046Z,37.85
2019-02-07T06:59:46.226Z,38.28
2019-02-07T07:02:36.530Z,27.15
2019-02-07T07:05:26.236Z,26.10
2019-02-07T07:08:14.992Z,32.70
2019-02-07T07:11:02.845Z,31.95
2019-02-07T07:13:54.375Z,30.90
2019-02-07T07:16:35.518Z,36.10
2019-02-07T07:19:29.206Z,36.25
2019-02-07T07:22:20.190Z,37.35
2019-02-07T07:25:10.878Z,27.98
2019-02-07T07:27:58.291Z,37.88
2019-02-07T07:30:48.819Z,35.13
2019-02-07T07:33:45.559Z,33.42
2019-02-07T07:36:36.367Z,30.57
2019-02-07T07:39:32.224Z,38.10
2019-02-07T07:42:22.537Z,35.63
2019-02-07T07:45:16.700Z,27.95
2019-02-07T07:48:22.276Z,30.97
2019-02-07T07:51:03.439Z,29.90
2019-02-07T07:53:52.304Z,30.80
2019-02-07T07:56:42.557Z,35.13
2019-02-07T07:59:45.119Z,26.97
2019-02-07T08:02:23.498Z,32.10
2019-02-07T08:05:10.325Z,28.95
2019-02-07T08:07:51.683Z,30.55
2019-02-07T08:10:45.249Z,30.08
2019-02-07T08:13:37.274Z,39.20
2019-02-07T08:16:27.762Z,34.85
2019-02-07T08:19:17.272Z,28.75
2019-02-07T08:22:14.268Z,29.67
2019-02-07T08:25:04.548Z,40.85
2019-02-07T08:28:03.733Z,22.60
2019-02-07T08:30:52.839Z,36.42
2019-02-07T08:33:40.342Z,32.35
2019-02-07T08:36:45.818Z,26.95
2019-02-07T08:39:48.028Z,28.23
2019-02-07T08:42:44.465Z,28.45
2019-02-07T08:45:47.037Z,38.08
2019-02-07T08:48:49.602Z,33.18
2019-02-07T08:51:46.280Z,26.65
2019-02-07T08:54:48.847Z,24.82
2019-02-07T08:57:48.128Z,28.50
2019-02-07T09:00:42.016Z,35.73
2019-02-07T09:03:38.266Z,25.88
2019-02-07T09:06:28.654Z,24.35
2019-02-07T09:09:22.269Z,26.07
2019-02-07T09:12:12.602Z,27.50
2019-02-07T09:15:08.605Z,28.38
2019-02-07T09:17:48.474Z,26.15
2019-02-07T09:20:42.568Z,28.07
2019-02-07T09:23:32.829Z,26.00
2019-02-07T09:26:33.832Z,31.40
2019-02-07T09:29:27.866Z,34.80
2019-02-07T09:32:18.321Z,38.40
2019-02-07T09:34:58.069Z,28.62
2019-02-07T09:37:47.027Z,29.95
2019-02-07T09:40:44.399Z,26.20
2019-02-07T09:43:33.230Z,31.77
2019-02-07T09:46:30.497Z,32.83
2019-02-07T09:49:31.051Z,35.15
2019-02-07T09:52:14.616Z,21.68
2019-02-07T09:55:03.445Z,26.75
2019-02-07T09:57:42.923Z,24.05
2019-02-07T10:00:46.080Z,34.00
2019-02-07T10:03:33.922Z,33.70
2019-02-07T10:06:36.495Z,34.30
2019-02-07T10:09:28.507Z,31.50
2019-02-07T10:12:26.940Z,29.15
2019-02-07T10:15:18.001Z,27.65
2019-02-07T10:18:08.929Z,30.30
2019-02-07T10:21:14.584Z,29.55
2019-02-07T10:24:07.516Z,26.55
2019-02-07T10:27:05.552Z,30.20
2019-02-07T10:30:05.053Z,30.90
2019-02-07T10:32:58.364Z,29.30
2019-02-07T10:35:48.766Z,28.98
2019-02-07T10:38:44.943Z,34.65
2019-02-07T10:41:38.179Z,31.40
2019-02-07T10:44:31.723Z,27.50
2019-02-07T10:47:20.799Z,34.40
2019-02-07T10:50:19.528Z,32.23
2019-02-07T10:53:19.238Z,33.85
2019-02-07T10:56:21.618Z,32.17
2019-02-07T10:59:12.131Z,52.78
2019-02-07T11:01:52.278Z,38.15
2019-02-07T11:04:51.487Z,35.40
2019-02-07T11:07:44.889Z,39.90
2019-02-07T11:10:34.106Z,43.50
2019-02-07T11:13:32.963Z,54.05
2019-02-07T11:16:15.214Z,34.90
2019-02-07T11:19:04.112Z,33.20
2019-02-07T11:22:06.299Z,43.65
2019-02-07T11:25:05.538Z,51.28
2019-02-07T11:28:10.238Z,32.65
2019-02-07T11:30:53.149Z,25.92
2019-02-07T11:33:33.475Z,30.05
2019-02-07T11:36:32.219Z,27.77
2019-02-07T11:39:31.709Z,25.05
2019-02-07T11:42:27.896Z,26.33
2019-02-07T11:45:27.585Z,22.60
2019-02-07T11:48:29.923Z,23.20
2019-02-07T11:51:11.316Z,21.97
2019-02-07T11:53:59.992Z,28.67
2019-02-07T11:56:42.237Z,26.17
2019-02-07T11:59:32.648Z,25.90
2019-02-07T12:02:19.318Z,32.50
2019-02-07T12:05:08.372Z,30.20
2019-02-07T12:07:57.468Z,27.20
2019-02-07T12:10:54.536Z,30.65
2019-02-07T12:13:41.888Z,36.25
2019-02-07T12:16:30.994Z,29.25
2019-02-07T12:19:18.192Z,30.17
2019-02-07T12:22:02.094Z,34.43
2019-02-07T12:24:51.132Z,34.03
2019-02-07T12:27:31.788Z,35.40
2019-02-07T12:30:24.868Z,32.95
2019-02-07T12:33:05.937Z,32.13
2019-02-07T12:35:50.418Z,36.53
2019-02-07T12:38:35.752Z,28.90
2019-02-07T12:41:26.074Z,30.50
2019-02-07T12:44:32.885Z,28.55
2019-02-07T12:47:33.222Z,35.45
2019-02-07T12:50:22.676Z,34.43
2019-02-07T12:53:11.527Z,35.40
2019-02-07T12:56:09.578Z,29.75
2019-02-07T12:58:59.142Z,39.27
2019-02-07T13:01:49.825Z,31.55
2019-02-07T13:04:49.466Z,45.63
2019-02-07T13:07:45.039Z,43.70
2019-02-07T13:10:44.899Z,40.20
2019-02-07T13:13:32.148Z,34.83
2019-02-07T13:16:17.545Z,39.38
2019-02-07T13:19:16.015Z,38.53
2019-02-07T13:22:24.660Z,43.15
2019-02-07T13:25:13.616Z,40.60
2019-02-07T13:28:03.097Z,32.78
2019-02-07T13:30:59.940Z,33.45
2019-02-07T13:33:59.582Z,30.00
2019-02-07T13:36:47.879Z,31.97
2019-02-07T13:39:47.367Z,35.35
2019-02-07T13:42:38.057Z,33.00
2019-02-07T13:45:27.579Z,33.10
2019-02-07T13:48:18.227Z,31.50
2019-02-07T13:51:08.932Z,44.50
2019-02-07T13:54:02.593Z,41.65
2019-02-07T13:56:51.515Z,31.85
2019-02-07T14:00:00.413Z,35.25
2019-02-07T14:02:49.520Z,35.83
2019-02-07T14:05:38.597Z,35.73
2019-02-07T14:08:18.988Z,34.30
2019-02-07T14:11:06.115Z,28.92
2019-02-07T14:13:50.524Z,37.05
2019-02-07T14:16:53.654Z,29.87
2019-02-07T14:19:43.942Z,31.23
2019-02-07T14:22:35.147Z,38.58
2019-02-07T14:25:24.207Z,32.67
2019-02-07T14:28:18.400Z,34.27
2019-02-07T14:31:11.897Z,34.73
2019-02-07T14:33:54.889Z,29.10
2019-02-07T14:36:45.644Z,33.33
2019-02-07T14:39:27.848Z,32.00
2019-02-07T14:42:16.779Z,32.23
2019-02-07T14:45:05.998Z,29.87
2019-02-07T14:47:37.986Z,34.33
2019-02-07T14:50:15.090Z,28.02
2019-02-07T14:52:44.378Z,34.92
2019-02-07T14:55:22.046Z,34.53
2019-02-07T14:57:53.903Z,33.83
2019-02-07T15:00:40.519Z,30.90
2019-02-07T15:03:12.410Z,29.30
2019-02-07T15:05:45.668Z,24.25
2019-02-07T15:08:17.979Z,6.65
2019-02-07T15:10:58.573Z,5.45
2019-02-07T15:13:30.543Z,4.22
2019-02-07T15:16:02.375Z,8.05
2019-02-07T15:18:34.257Z,16.57
2019-02-07T15:21:06.084Z,22.27
2019-02-07T15:23:41.300Z,24.70
2019-02-07T15:26:13.450Z,26.97
2019-02-07T15:28:47.823Z,27.20
2019-02-07T15:31:19.814Z,35.33
2019-02-07T15:33:52.079Z,32.30
2019-02-07T15:36:24.441Z,34.95
2019-02-07T15:38:59.724Z,39.50
2019-02-07T15:41:31.671Z,34.92
2019-02-07T15:44:04.713Z,39.73
2019-02-07T15:46:37.881Z,44.38
2019-02-07T15:49:09.810Z,35.52
2019-02-07T15:51:41.728Z,45.95
2019-02-07T15:54:13.686Z,41.80
2019-02-07T15:56:45.400Z,45.70
2019-02-07T15:59:28.624Z,35.85
2019-02-07T16:02:30.610Z,41.68
2019-02-07T16:05:16.478Z,38.15
2019-02-07T16:07:48.204Z,32.38
2019-02-07T16:10:20.360Z,33.42
2019-02-07T16:13:23.655Z,39.33
2019-02-07T16:15:57.298Z,42.03
2019-02-07T16:18:28.920Z,37.30
2019-02-07T16:21:03.756Z,47.88
2019-02-07T16:23:37.857Z,50.43
2019-02-07T16:26:09.802Z,35.95
2019-02-07T16:28:41.543Z,38.08
2019-02-07T16:31:13.290Z,37.67
2019-02-07T16:33:45.093Z,46.80
2019-02-07T16:36:17.326Z,38.85
2019-02-07T16:38:49.035Z,44.00
2019-02-07T16:41:20.680Z,58.38
2019-02-07T16:43:52.241Z,45.05
2019-02-07T16:46:23.980Z,42.73
2019-02-07T16:48:55.567Z,37.45
2019-02-07T16:51:27.512Z,44.27
2019-02-07T16:53:59.280Z,39.42
2019-02-07T16:56:34.020Z,49.80
2019-02-07T16:59:05.746Z,47.65
2019-02-07T17:01:37.480Z,48.73
2019-02-07T17:04:09.942Z,39.20
2019-02-07T17:06:41.660Z,37.50
2019-02-07T17:09:20.326Z,35.33
2019-02-07T17:11:52.072Z,42.65
2019-02-07T17:14:26.925Z,42.48
2019-02-07T17:17:00.227Z,38.95
2019-02-07T17:19:31.659Z,38.58
2019-02-07T17:22:03.325Z,49.10
2019-02-07T17:24:34.992Z,45.67
2019-02-07T17:27:06.784Z,40.63
2019-02-07T17:29:43.022Z,44.88
2019-02-07T17:32:14.521Z,36.73
2019-02-07T17:34:46.059Z,39.35
2019-02-07T17:37:17.628Z,36.20
2019-02-07T17:39:49.507Z,33.13
2019-02-07T17:42:21.543Z,34.10
2019-02-07T17:44:55.040Z,29.63
2019-02-07T17:47:30.090Z,29.48
2019-02-07T17:50:02.458Z,29.82
2019-02-07T17:52:34.953Z,29.05
2019-02-07T17:55:13.272Z,31.25
2019-02-07T17:57:47.755Z,29.50
2019-02-07T18:00:39.917Z,31.02
2019-02-07T18:03:14.037Z,35.08
2019-02-07T18:05:46.473Z,35.05
2019-02-07T18:08:19.456Z,42.35
2019-02-07T18:10:51.686Z,41.42
2019-02-07T18:13:24.250Z,26.70
2019-02-07T18:15:58.374Z,31.97
2019-02-07T18:18:32.093Z,34.60
2019-02-07T18:21:04.240Z,30.90
2019-02-07T18:23:36.557Z,29.05
2019-02-07T18:26:08.829Z,32.73
2019-02-07T18:28:40.711Z,30.70
2019-02-07T18:31:12.892Z,25.43
2019-02-07T18:33:46.101Z,28.07
2019-02-07T18:36:19.272Z,27.52
2019-02-07T18:38:54.924Z,18.82
2019-02-07T18:41:33.069Z,16.12
2019-02-07T18:44:08.023Z,22.55
2019-02-07T18:46:45.410Z,18.40
2019-02-07T18:49:24.055Z,17.35
2019-02-07T18:51:58.698Z,14.15
2019-02-07T18:54:33.510Z,15.85
2019-02-07T18:57:10.032Z,18.85
2019-02-07T18:59:45.776Z,15.48
2019-02-07T19:02:22.628Z,17.40
2019-02-07T19:04:58.573Z,18.60
2019-02-07T19:07:42.512Z,17.42
2019-02-07T19:10:23.174Z,20.68
2019-02-07T19:12:54.725Z,19.10
2019-02-07T19:15:43.763Z,12.35
2019-02-07T19:18:21.199Z,12.73
2019-02-07T19:20:59.616Z,10.75
2019-02-07T19:23:31.147Z,15.90
2019-02-07T19:26:13.423Z,11.40
2019-02-07T19:28:46.075Z,14.38
2019-02-07T19:31:22.095Z,10.35
2019-02-07T19:33:54.588Z,12.43
2019-02-07T19:36:31.047Z,13.00
2019-02-07T19:39:06.347Z,16.60
2019-02-07T19:41:48.526Z,15.72
2019-02-07T19:44:36.643Z,12.47
2019-02-07T19:47:10.506Z,11.57
2019-02-07T19:49:51.302Z,8.23
2019-02-07T19:52:28.094Z,9.28
2019-02-07T19:55:08.164Z,8.63
2019-02-07T19:57:53.074Z,10.18
2019-02-07T20:00:39.385Z,8.55
2019-02-07T20:03:15.470Z,8.53
2019-02-07T20:05:54.562Z,10.20
2019-02-07T20:08:27.767Z,7.87
2019-02-07T20:11:02.884Z,8.15
2019-02-07T20:13:35.291Z,7.53
2019-02-07T20:16:07.896Z,9.83
2019-02-07T20:18:41.534Z,7.83
2019-02-07T20:21:14.300Z,7.42
2019-02-07T20:23:46.842Z,9.10
2019-02-07T20:26:22.812Z,8.38
2019-02-07T20:28:57.996Z,6.58
2019-02-07T20:31:30.830Z,5.42
2019-02-07T20:34:03.383Z,6.42
2019-02-07T20:36:38.716Z,11.15
2019-02-07T20:39:11.678Z,7.40
2019-02-07T20:41:44.655Z,7.12
2019-02-07T20:44:20.701Z,14.63
2019-02-07T20:46:52.199Z,7.35
2019-02-07T20:49:25.350Z,8.13
2019-02-07T20:52:04.187Z,8.90
2019-02-07T20:54:38.117Z,9.28
2019-02-07T20:57:12.672Z,8.78
2019-02-07T20:59:44.254Z,5.12
2019-02-07T21:02:16.831Z,5.62
2019-02-07T21:04:49.829Z,10.25
2019-02-07T21:07:23.014Z,8.68
2019-02-07T21:09:58.233Z,8.45
2019-02-07T21:12:34.134Z,9.15
2019-02-07T21:15:10.745Z,10.20
2019-02-07T21:17:42.932Z,17.98
2019-02-07T21:20:20.175Z,9.53
2019-02-07T21:22:53.091Z,9.58
2019-02-07T21:25:29.499Z,6.90
2019-02-07T21:28:01.354Z,7.92
2019-02-07T21:30:34.026Z,15.43
2019-02-07T21:33:06.864Z,9.75
2019-02-07T21:35:39.617Z,12.33
2019-02-07T21:38:11.846Z,6.53
2019-02-07T21:40:44.182Z,11.97
2019-02-07T21:43:16.428Z,13.80
2019-02-07T21:45:48.862Z,13.30
2019-02-07T21:48:29.031Z,4.60
2019-02-07T21:51:01.398Z,11.90
2019-02-07T21:53:35.258Z,7.60
2019-02-07T21:56:10.224Z,7.20
2019-02-07T21:58:42.302Z,3.52
2019-02-07T22:01:14.337Z,12.28
2019-02-07T22:03:46.133Z,5.90
2019-02-07T22:06:18.284Z,4.95
2019-02-07T22:08:50.298Z,5.25
2019-02-07T22:11:22.116Z,5.58
2019-02-07T22:13:57.178Z,6.35
2019-02-07T22:16:32.001Z,8.13
2019-02-07T22:19:04.335Z,5.33
2019-02-07T22:21:37.335Z,7.10
2019-02-07T22:24:09.763Z,8.68
2019-02-07T22:26:42.320Z,10.00
2019-02-07T22:29:14.745Z,5.95
2019-02-07T22:31:46.761Z,8.50
2019-02-07T22:34:19.431Z,7.83
2019-02-07T22:36:51.078Z,11.25
2019-02-07T22:39:23.374Z,5.97
2019-02-07T22:41:54.974Z,6.67
2019-02-07T22:44:26.418Z,7.58
2019-02-07T22:46:59.670Z,9.13
2019-02-07T22:49:31.872Z,12.25
2019-02-07T22:52:04.078Z,6.35
2019-02-07T22:54:36.587Z,6.15
2019-02-07T22:57:11.505Z,8.83
2019-02-07T22:59:44.365Z,7.30
2019-02-07T23:02:18.800Z,7.53
2019-02-07T23:04:51.274Z,4.87
2019-02-07T23:07:23.818Z,4.28
2019-02-07T23:09:58.145Z,10.13
2019-02-07T23:12:31.817Z,12.37
2019-02-07T23:15:05.919Z,9.60
2019-02-07T23:17:41.172Z,8.50
2019-02-07T23:20:13.652Z,8.30
2019-02-07T23:22:48.344Z,10.03
2019-02-07T23:25:20.840Z,7.62
2019-02-07T23:27:56.118Z,6.58
2019-02-07T23:30:28.830Z,9.88
2019-02-07T23:33:01.096Z,7.80
2019-02-07T23:35:33.191Z,12.40
2019-02-07T23:38:08.963Z,7.25
2019-02-07T23:40:44.696Z,8.28
2019-02-07T23:43:16.718Z,6.03
2019-02-07T23:45:48.942Z,9.80
2019-02-07T23:48:20.550Z,13.70
2019-02-07T23:50:52.133Z,9.10
2019-02-07T23:53:31.674Z,9.95
2019-02-07T23:56:07.307Z,7.95
2019-02-07T23:58:40.016Z,10.40
